createdAt,value
2023-03-26T00:00:13.451Z,221.96
2023-03-26T00:01:13.524Z,223.67
2023-03-26T00:02:13.582Z,224.13
2023-03-26T00:03:13.626Z,225.08
2023-03-26T00:04:13.664Z,223.66
2023-03-26T00:05:13.752Z,214.56
2023-03-26T00:06:13.779Z,203.74
2023-03-26T00:07:13.846Z,200.47
2023-03-26T00:08:13.937Z,194.37
2023-03-26T00:09:13.988Z,192.99
2023-03-26T00:10:14.047Z,188.95
2023-03-26T00:11:14.130Z,186.56
2023-03-26T00:12:14.146Z,183.61
2023-03-26T00:13:14.247Z,184.00
2023-03-26T00:14:14.329Z,186.22
2023-03-26T00:15:14.348Z,186.70
2023-03-26T00:16:14.462Z,189.48
2023-03-26T00:17:14.528Z,194.51
2023-03-26T00:18:14.538Z,194.01
2023-03-26T00:19:14.616Z,193.96
2023-03-26T00:20:14.680Z,196.01
2023-03-26T00:21:14.736Z,196.95
2023-03-26T00:22:14.813Z,200.39
2023-03-26T00:23:14.959Z,200.52
2023-03-26T00:24:15.112Z,203.43
2023-03-26T00:25:14.974Z,203.37
2023-03-26T00:26:15.058Z,201.79
2023-03-26T00:27:15.072Z,201.05
2023-03-26T00:28:15.120Z,202.19
2023-03-26T00:29:15.197Z,204.83
2023-03-26T00:30:15.227Z,206.39
2023-03-26T00:31:15.300Z,207.44
2023-03-26T00:32:15.323Z,204.91
2023-03-26T00:33:15.388Z,207.60
2023-03-26T00:34:15.545Z,206.36
2023-03-26T00:35:15.525Z,207.22
2023-03-26T00:36:15.685Z,206.54
2023-03-26T00:37:15.640Z,211.19
2023-03-26T00:38:15.649Z,211.35
2023-03-26T00:39:15.751Z,208.75
2023-03-26T00:40:15.751Z,208.08
2023-03-26T00:41:15.819Z,208.09
2023-03-26T00:42:15.866Z,209.38
2023-03-26T00:43:15.925Z,210.25
2023-03-26T00:44:15.989Z,211.21
2023-03-26T00:45:16.027Z,212.55
2023-03-26T00:46:16.143Z,214.16
2023-03-26T00:47:16.156Z,216.09
2023-03-26T00:48:16.196Z,215.64
2023-03-26T00:49:16.299Z,216.90
2023-03-26T00:50:16.344Z,218.07
2023-03-26T00:51:16.350Z,217.92
2023-03-26T00:52:16.414Z,218.73
2023-03-26T00:53:16.496Z,219.95
2023-03-26T00:54:16.509Z,219.95
2023-03-26T00:55:16.562Z,221.07
2023-03-26T00:56:16.636Z,221.71
2023-03-26T00:57:28.869Z,223.46
2023-03-26T00:58:17.729Z,223.50
2023-03-26T00:59:16.767Z,223.48
2023-03-26T01:00:16.945Z,220.02
2023-03-26T01:01:16.816Z,217.83
2023-03-26T01:02:16.846Z,219.18
2023-03-26T01:03:26.591Z,220.35
2023-03-26T01:04:18.014Z,220.40
2023-03-26T01:06:16.927Z,221.38
2023-03-26T01:07:16.924Z,222.34
2023-03-26T01:08:16.942Z,225.03
2023-03-26T01:09:17.004Z,224.43
2023-03-26T01:10:17.004Z,224.83
2023-03-26T01:11:17.045Z,223.97
2023-03-26T01:12:17.129Z,222.90
2023-03-26T01:13:17.091Z,223.83
2023-03-26T01:14:17.144Z,222.46
2023-03-26T01:15:17.154Z,222.34
2023-03-26T01:16:17.231Z,223.74
2023-03-26T01:17:17.228Z,223.98
2023-03-26T01:18:17.236Z,225.21
2023-03-26T01:19:17.293Z,225.09
2023-03-26T01:20:17.297Z,224.76
2023-03-26T01:21:17.338Z,224.68
2023-03-26T01:22:17.374Z,225.58
2023-03-26T01:23:17.403Z,225.53
2023-03-26T01:24:17.448Z,227.28
2023-03-26T01:44:18.281Z,223.40
2023-03-26T01:45:18.352Z,223.28
2023-03-26T01:46:18.470Z,221.81
2023-03-26T01:47:18.456Z,223.33
2023-03-26T01:48:18.511Z,224.34
2023-03-26T01:49:18.547Z,224.87
2023-03-26T01:50:18.589Z,225.11
2023-03-26T01:51:18.636Z,225.93
2023-03-26T01:52:18.711Z,225.61
2023-03-26T01:53:18.765Z,224.82
2023-03-26T01:54:18.761Z,224.87
2023-03-26T01:55:18.826Z,224.31
2023-03-26T01:56:18.890Z,221.01
2023-03-26T01:57:18.912Z,215.99
2023-03-26T01:58:19.002Z,215.50
2023-03-26T01:59:19.068Z,216.64
2023-03-26T02:00:19.117Z,217.43
2023-03-26T02:01:19.153Z,217.92
2023-03-26T02:02:19.193Z,218.63
2023-03-26T02:03:19.363Z,219.93
2023-03-26T02:09:19.522Z,227.96
2023-03-26T02:10:19.543Z,227.86
2023-03-26T02:11:20.085Z,228.10
2023-03-26T02:12:19.590Z,225.96
2023-03-26T02:13:19.666Z,226.98
2023-03-26T02:14:19.688Z,228.80
2023-03-26T02:15:19.764Z,229.07
2023-03-26T02:16:19.852Z,230.40
2023-03-26T02:17:19.855Z,231.52
2023-03-26T02:18:19.917Z,228.63
2023-03-26T02:19:20.368Z,226.66
2023-03-26T02:25:20.249Z,226.11
2023-03-26T02:26:20.274Z,223.46
2023-03-26T02:27:20.330Z,225.72
2023-03-26T02:28:20.402Z,224.71
2023-03-26T02:29:20.653Z,222.89
2023-03-26T02:30:20.457Z,222.68
2023-03-26T02:31:20.608Z,226.91
2023-03-26T02:48:21.316Z,232.25
2023-03-26T02:49:21.361Z,231.96
2023-03-26T02:50:21.376Z,232.88
2023-03-26T02:51:21.393Z,232.85
2023-03-26T02:52:21.471Z,232.10
2023-03-26T02:53:21.539Z,231.63
2023-03-26T02:54:21.591Z,231.86
2023-03-26T02:55:21.599Z,233.17
2023-03-26T02:56:21.702Z,234.32
2023-03-26T02:57:21.689Z,233.26
2023-03-26T02:59:21.815Z,233.00
2023-03-26T03:00:21.887Z,234.01
2023-03-26T03:01:21.985Z,233.80
2023-03-26T03:02:22.016Z,234.70
2023-03-26T03:03:22.156Z,235.69
2023-03-26T03:04:22.106Z,235.65
2023-03-26T03:05:22.298Z,235.97
2023-03-26T03:06:22.102Z,236.93
2023-03-26T03:20:22.764Z,238.79
2023-03-26T03:21:22.776Z,238.46
2023-03-26T03:22:22.842Z,235.70
2023-03-26T03:23:23.142Z,237.49
2023-03-26T03:24:22.940Z,239.25
2023-03-26T03:25:22.944Z,239.65
2023-03-26T03:26:22.997Z,241.69
2023-03-26T03:27:23.061Z,242.86
2023-03-26T03:28:23.122Z,243.01
2023-03-26T03:29:23.191Z,243.46
2023-03-26T03:30:23.196Z,242.11
2023-03-26T03:31:23.256Z,238.44
2023-03-26T03:32:23.329Z,241.17
2023-03-26T03:33:23.340Z,242.71
2023-03-26T03:34:23.360Z,242.96
2023-03-26T03:35:23.460Z,242.46
2023-03-26T03:36:23.484Z,245.86
2023-03-26T03:37:23.545Z,244.42
2023-03-26T03:38:23.586Z,246.32
2023-03-26T03:39:23.659Z,245.71
2023-03-26T03:40:23.733Z,246.25
2023-03-26T03:41:23.744Z,248.05
2023-03-26T03:42:23.782Z,248.14
2023-03-26T03:43:23.817Z,247.69
2023-03-26T03:44:23.896Z,248.67
2023-03-26T03:45:23.950Z,248.57
2023-03-26T03:46:24.028Z,248.97
2023-03-26T03:47:24.050Z,248.62
2023-03-26T03:48:24.184Z,248.54
2023-03-26T04:02:24.713Z,248.95
2023-03-26T04:03:33.412Z,249.82
2023-03-26T04:24:25.258Z,248.86
2023-03-26T04:25:25.314Z,248.43
2023-03-26T04:26:25.342Z,248.49
2023-03-26T04:27:25.347Z,248.55
2023-03-26T04:28:25.427Z,249.31
2023-03-26T04:29:25.434Z,247.81
2023-03-26T04:30:25.475Z,247.43
2023-03-26T04:31:25.559Z,248.71
2023-03-26T04:32:25.642Z,248.71
2023-03-26T04:33:25.629Z,247.50
2023-03-26T04:34:25.683Z,248.30
2023-03-26T04:35:25.744Z,247.29
2023-03-26T04:36:25.791Z,246.84
2023-03-26T04:37:25.837Z,247.37
2023-03-26T04:38:25.890Z,246.58
2023-03-26T04:51:26.450Z,245.64
2023-03-26T04:52:26.516Z,245.02
2023-03-26T04:53:26.548Z,246.19
2023-03-26T04:54:26.610Z,247.24
2023-03-26T04:55:26.681Z,246.41
2023-03-26T04:56:26.743Z,246.99
2023-03-26T04:57:26.787Z,247.49
2023-03-26T04:58:26.856Z,246.80
2023-03-26T04:59:26.858Z,246.96
2023-03-26T05:00:26.908Z,247.57
2023-03-26T05:01:27.021Z,246.79
2023-03-26T05:02:27.024Z,246.23
2023-03-26T05:03:27.031Z,245.96
2023-03-26T05:04:27.153Z,245.85
2023-03-26T05:05:28.405Z,245.90
2023-03-26T05:12:27.470Z,243.42
2023-03-26T05:13:27.521Z,244.12
2023-03-26T05:14:27.538Z,244.40
2023-03-26T05:15:27.601Z,244.90
2023-03-26T05:16:27.654Z,244.42
2023-03-26T05:17:27.732Z,244.69
2023-03-26T05:18:27.764Z,244.38
2023-03-26T05:19:27.808Z,245.67
2023-03-26T05:20:27.834Z,246.18
2023-03-26T05:21:27.918Z,245.65
2023-03-26T05:22:27.989Z,244.97
2023-03-26T05:23:28.041Z,245.78
2023-03-26T05:24:28.085Z,245.76
2023-03-26T05:25:28.116Z,245.89
2023-03-26T05:26:28.192Z,246.45
2023-03-26T05:27:28.240Z,247.47
2023-03-26T05:28:28.309Z,247.91
2023-03-26T05:29:28.411Z,247.32
2023-03-26T05:30:28.438Z,248.53
2023-03-26T05:31:28.516Z,244.00
2023-03-26T05:32:28.589Z,244.85
2023-03-26T05:33:28.767Z,245.47
2023-03-26T05:34:28.688Z,247.11
2023-03-26T05:35:28.719Z,247.45
2023-03-26T05:36:28.768Z,247.10
2023-03-26T05:37:28.818Z,247.92
2023-03-26T05:38:28.896Z,248.52
2023-03-26T05:39:28.958Z,248.67
2023-03-26T05:40:28.962Z,246.78
2023-03-26T05:41:29.038Z,247.84
2023-03-26T05:42:29.075Z,247.50
2023-03-26T05:43:29.158Z,247.99
2023-03-26T05:44:29.233Z,248.59
2023-03-26T05:45:29.271Z,248.10
2023-03-26T05:46:29.367Z,248.66
2023-03-26T05:47:29.407Z,246.88
2023-03-26T05:48:29.449Z,248.01
2023-03-26T05:49:29.548Z,248.83
2023-03-26T05:50:29.608Z,249.68
2023-03-26T05:51:29.629Z,249.92
2023-03-26T05:52:29.727Z,249.51
2023-03-26T05:53:29.788Z,249.24
2023-03-26T05:54:29.845Z,248.77
2023-03-26T05:55:29.898Z,248.07
2023-03-26T05:57:30.850Z,249.14
2023-03-26T06:01:30.268Z,249.52
2023-03-26T06:02:30.368Z,249.57
2023-03-26T06:03:30.540Z,249.22
2023-03-26T06:04:30.568Z,249.88
2023-03-26T06:05:30.560Z,249.58
2023-03-26T06:06:33.099Z,249.34
2023-03-26T06:07:30.574Z,249.75
2023-03-26T06:08:30.653Z,248.49
2023-03-26T06:09:30.672Z,247.84
2023-03-26T06:10:30.663Z,247.65
2023-03-26T06:11:30.707Z,248.46
2023-03-26T06:12:30.790Z,248.92
2023-03-26T06:13:30.790Z,249.56
2023-03-26T06:14:30.824Z,248.99
2023-03-26T06:15:30.882Z,249.35
2023-03-26T06:16:30.948Z,249.41
2023-03-26T06:17:30.956Z,248.67
2023-03-26T06:18:30.945Z,249.49
2023-03-26T06:19:30.919Z,247.50
2023-03-26T06:20:30.937Z,247.99
2023-03-26T06:21:31.030Z,248.89
2023-03-26T06:22:31.042Z,247.29
2023-03-26T06:23:31.104Z,247.82
2023-03-26T06:24:31.103Z,247.54
2023-03-26T06:25:31.169Z,247.08
2023-03-26T06:26:31.125Z,247.20
2023-03-26T06:27:31.180Z,247.15
2023-03-26T06:28:31.224Z,246.21
2023-03-26T06:29:31.237Z,246.32
2023-03-26T06:30:31.291Z,245.66
2023-03-26T06:35:31.500Z,240.57
2023-03-26T06:36:31.480Z,239.55
2023-03-26T06:37:31.494Z,240.58
2023-03-26T06:38:31.541Z,241.29
2023-03-26T06:39:31.572Z,241.68
2023-03-26T06:40:31.570Z,242.45
2023-03-26T06:41:31.622Z,242.92
2023-03-26T06:43:06.515Z,244.01
2023-03-26T06:44:31.679Z,244.27
2023-03-26T06:45:31.725Z,244.14
2023-03-26T06:46:31.806Z,243.84
2023-03-26T06:48:31.833Z,244.65
2023-03-26T06:49:31.851Z,245.51
2023-03-26T06:50:31.910Z,245.42
2023-03-26T06:54:32.019Z,243.60
2023-03-26T06:55:32.027Z,243.28
2023-03-26T06:56:32.036Z,242.90
2023-03-26T06:57:32.079Z,242.14
2023-03-26T06:58:32.118Z,241.94
2023-03-26T06:59:32.151Z,242.44
2023-03-26T07:00:32.222Z,243.02
2023-03-26T07:01:32.308Z,243.33
2023-03-26T07:02:32.330Z,243.86
2023-03-26T07:03:32.353Z,243.16
2023-03-26T07:04:32.452Z,243.85
2023-03-26T07:05:32.493Z,243.94
2023-03-26T07:06:32.532Z,243.65
2023-03-26T07:07:32.552Z,243.95
2023-03-26T07:08:32.663Z,244.47
2023-03-26T07:09:32.703Z,243.48
2023-03-26T07:10:32.765Z,243.97
2023-03-26T07:11:32.778Z,243.56
2023-03-26T07:12:32.824Z,243.49
2023-03-26T07:13:32.918Z,244.24
2023-03-26T07:14:32.935Z,243.62
2023-03-26T07:15:32.985Z,243.86
2023-03-26T07:16:33.114Z,243.84
2023-03-26T07:17:33.112Z,241.86
2023-03-26T07:18:33.218Z,240.86
2023-03-26T07:33:33.989Z,242.80
2023-03-26T07:34:34.058Z,241.06
2023-03-26T07:35:34.131Z,241.57
2023-03-26T07:36:34.163Z,241.33
2023-03-26T07:37:34.258Z,241.77
2023-03-26T07:38:34.271Z,240.59
2023-03-26T07:39:34.316Z,240.32
2023-03-26T07:40:34.376Z,239.11
2023-03-26T07:41:34.434Z,239.28
2023-03-26T07:42:34.483Z,239.85
2023-03-26T07:43:34.581Z,240.70
2023-03-26T07:44:35.819Z,240.11
2023-03-26T07:45:34.632Z,239.82
2023-03-26T07:46:34.676Z,241.16
2023-03-26T07:47:34.838Z,241.16
2023-03-26T07:48:34.832Z,241.15
2023-03-26T07:49:34.841Z,240.69
2023-03-26T07:50:34.890Z,240.03
2023-03-26T07:51:34.988Z,241.26
2023-03-26T07:52:35.075Z,240.65
2023-03-26T07:53:35.066Z,239.98
2023-03-26T07:54:35.111Z,240.31
2023-03-26T07:55:35.166Z,240.88
2023-03-26T07:56:35.330Z,240.83
2023-03-26T07:57:35.276Z,241.91
2023-03-26T07:58:35.325Z,242.06
2023-03-26T07:59:35.376Z,241.57
2023-03-26T08:00:35.444Z,241.51
2023-03-26T08:01:35.468Z,240.40
2023-03-26T08:02:35.567Z,240.84
2023-03-26T08:03:35.719Z,240.06
2023-03-26T08:04:35.713Z,240.17
2023-03-26T08:05:35.693Z,240.00
2023-03-26T08:06:35.765Z,239.50
2023-03-26T08:07:35.776Z,240.80
2023-03-26T08:08:35.870Z,240.20
2023-03-26T08:09:35.853Z,240.99
2023-03-26T08:10:35.902Z,241.84
2023-03-26T08:11:36.018Z,241.09
2023-03-26T08:12:36.064Z,239.80
2023-03-26T08:13:36.059Z,239.65
2023-03-26T08:14:36.150Z,241.22
2023-03-26T08:15:36.206Z,239.91
2023-03-26T08:16:36.192Z,238.55
2023-03-26T08:17:36.332Z,238.90
2023-03-26T08:18:36.367Z,239.06
2023-03-26T08:19:36.371Z,237.25
2023-03-26T08:20:36.404Z,236.49
2023-03-26T08:21:36.453Z,236.40
2023-03-26T08:22:36.498Z,236.15
2023-03-26T08:23:36.545Z,232.59
2023-03-26T08:24:37.588Z,232.62
2023-03-26T08:32:36.831Z,234.08
2023-03-26T08:33:38.414Z,234.78
2023-03-26T08:34:36.875Z,234.44
2023-03-26T08:35:36.966Z,233.69
2023-03-26T08:36:36.922Z,232.66
2023-03-26T08:37:36.933Z,233.37
2023-03-26T08:38:37.007Z,232.91
2023-03-26T08:46:37.337Z,231.70
2023-03-26T08:47:37.338Z,228.78
2023-03-26T08:48:37.343Z,226.30
2023-03-26T08:49:37.400Z,215.43
2023-03-26T08:50:37.448Z,208.61
2023-03-26T08:51:37.513Z,206.08
2023-03-26T08:52:37.510Z,208.23
2023-03-26T08:53:37.574Z,210.32
2023-03-26T08:54:37.630Z,211.30
2023-03-26T08:56:37.757Z,214.40
2023-03-26T08:57:37.706Z,215.09
2023-03-26T08:58:37.783Z,217.65
2023-03-26T08:59:37.803Z,219.36
2023-03-26T09:00:37.876Z,220.12
2023-03-26T09:01:37.977Z,219.89
2023-03-26T09:04:38.080Z,221.28
2023-03-26T09:05:38.159Z,222.22
2023-03-26T09:06:38.138Z,222.09
2023-03-26T09:07:38.189Z,222.93
2023-03-26T09:08:38.298Z,222.96
2023-03-26T09:09:39.270Z,223.05
2023-03-26T09:12:38.423Z,223.02
2023-03-26T09:15:38.392Z,224.39
2023-03-26T09:16:38.521Z,223.79
2023-03-26T09:17:38.521Z,207.65
2023-03-26T09:18:38.523Z,195.60
2023-03-26T09:19:38.516Z,189.33
2023-03-26T09:20:38.523Z,178.14
2023-03-26T09:21:38.577Z,164.11
2023-03-26T09:22:38.563Z,157.57
2023-03-26T09:23:38.622Z,157.93
2023-03-26T09:24:38.688Z,162.47
2023-03-26T09:25:38.703Z,156.87
2023-03-26T09:26:38.708Z,145.92
2023-03-26T09:27:38.776Z,145.29
2023-03-26T09:28:38.825Z,142.59
2023-03-26T09:29:38.863Z,136.55
2023-03-26T09:30:38.948Z,132.28
2023-03-26T09:31:39.058Z,128.93
2023-03-26T09:32:39.125Z,129.28
2023-03-26T09:33:39.138Z,130.13
2023-03-26T09:34:39.168Z,133.99
2023-03-26T09:35:39.273Z,137.17
2023-03-26T09:36:39.275Z,136.86
2023-03-26T09:37:57.069Z,143.09
2023-03-26T09:38:40.430Z,141.88
2023-03-26T09:39:39.396Z,143.37
2023-03-26T09:40:39.419Z,144.81
2023-03-26T09:41:39.456Z,147.72
2023-03-26T09:42:39.491Z,142.19
2023-03-26T09:43:39.561Z,127.74
2023-03-26T09:44:40.429Z,121.83
2023-03-26T09:49:39.735Z,122.75
2023-03-26T09:50:39.747Z,123.09
2023-03-26T09:51:39.788Z,124.75
2023-03-26T09:52:39.787Z,125.79
2023-03-26T09:53:39.829Z,127.13
2023-03-26T09:54:39.895Z,123.68
2023-03-26T09:55:39.884Z,116.52
2023-03-26T09:56:39.931Z,110.39
2023-03-26T09:57:40.033Z,108.18
2023-03-26T09:58:40.074Z,105.03
2023-03-26T09:59:40.132Z,103.55
2023-03-26T10:00:40.163Z,104.53
2023-03-26T10:01:40.367Z,100.26
2023-03-26T10:02:45.540Z,98.81
2023-03-26T10:03:41.326Z,98.87
2023-03-26T10:05:40.376Z,99.84
2023-03-26T10:06:40.423Z,100.08
2023-03-26T10:07:40.427Z,99.83
2023-03-26T10:08:40.454Z,102.96
2023-03-26T10:09:40.455Z,109.20
2023-03-26T10:10:40.526Z,111.27
2023-03-26T10:11:40.569Z,110.43
2023-03-26T10:12:40.550Z,110.59
2023-03-26T10:13:40.610Z,109.50
2023-03-26T10:14:40.665Z,103.73
2023-03-26T10:20:40.878Z,117.05
2023-03-26T10:21:40.980Z,121.11
2023-03-26T10:22:41.020Z,118.57
2023-03-26T10:23:41.093Z,122.90
2023-03-26T10:24:41.112Z,127.46
2023-03-26T10:25:41.229Z,124.16
2023-03-26T10:26:41.251Z,123.22
2023-03-26T10:27:42.283Z,121.95
2023-03-26T10:29:41.381Z,119.83
2023-03-26T10:30:41.362Z,109.43
2023-03-26T10:31:41.395Z,109.17
2023-03-26T10:32:41.474Z,110.30
2023-03-26T10:33:41.417Z,112.25
2023-03-26T10:34:41.482Z,117.61
2023-03-26T10:35:41.498Z,120.80
2023-03-26T10:36:41.504Z,125.85
2023-03-26T10:37:41.523Z,124.83
2023-03-26T10:38:41.534Z,125.68
2023-03-26T10:39:42.409Z,130.00
2023-03-26T10:40:41.611Z,136.53
2023-03-26T10:41:41.619Z,139.65
2023-03-26T10:42:41.680Z,141.95
2023-03-26T10:43:41.678Z,140.63
2023-03-26T10:44:41.725Z,143.49
2023-03-26T10:45:41.730Z,147.83
2023-03-26T10:46:41.878Z,147.62
2023-03-26T10:48:41.881Z,151.59
2023-03-26T10:49:41.936Z,145.10
2023-03-26T10:50:41.984Z,141.89
2023-03-26T10:51:42.021Z,143.78
2023-03-26T10:52:42.093Z,145.98
2023-03-26T10:53:42.105Z,149.22
2023-03-26T10:54:42.509Z,157.53
2023-03-26T11:00:42.454Z,144.28
2023-03-26T11:01:42.571Z,132.78
2023-03-26T11:02:42.582Z,127.09
2023-03-26T11:03:42.601Z,123.68
2023-03-26T11:04:42.730Z,119.52
2023-03-26T11:06:42.745Z,114.12
2023-03-26T11:07:42.820Z,108.48
2023-03-26T11:08:42.881Z,109.15
2023-03-26T11:09:42.924Z,108.60
2023-03-26T11:10:42.988Z,100.55
2023-03-26T11:11:43.110Z,98.02
2023-03-26T11:12:43.149Z,97.13
2023-03-26T11:13:43.221Z,95.31
2023-03-26T11:14:43.318Z,97.55
2023-03-26T11:15:43.396Z,101.58
2023-03-26T11:16:43.937Z,102.11
2023-03-26T11:18:43.577Z,111.73
2023-03-26T11:19:43.583Z,117.28
2023-03-26T11:20:43.690Z,115.99
2023-03-26T11:21:43.737Z,117.77
2023-03-26T11:22:43.817Z,120.53
2023-03-26T11:23:43.848Z,125.65
2023-03-26T11:24:43.900Z,130.19
2023-03-26T11:25:43.970Z,137.63
2023-03-26T11:26:44.023Z,142.00
2023-03-26T11:27:44.091Z,141.73
2023-03-26T11:29:03.469Z,143.99
2023-03-26T11:29:45.165Z,144.07
2023-03-26T11:33:45.294Z,149.83
2023-03-26T11:34:44.328Z,157.44
2023-03-26T11:35:44.405Z,160.09
2023-03-26T11:36:44.348Z,163.00
2023-03-26T11:37:44.352Z,165.45
2023-03-26T11:38:44.357Z,167.55
2023-03-26T11:39:44.419Z,169.24
2023-03-26T11:40:44.424Z,174.00
2023-03-26T11:41:44.421Z,176.12
2023-03-26T11:42:44.450Z,178.64
2023-03-26T11:43:44.492Z,177.80
2023-03-26T11:44:44.508Z,175.60
2023-03-26T11:45:44.550Z,181.39
2023-03-26T11:46:44.595Z,180.75
2023-03-26T11:47:44.680Z,179.48
2023-03-26T11:48:44.855Z,181.97
2023-03-26T11:52:46.886Z,198.67
2023-03-26T11:53:44.931Z,200.74
2023-03-26T11:54:44.986Z,199.99
2023-03-26T11:55:45.045Z,197.70
2023-03-26T11:57:04.935Z,200.41
2023-03-26T11:57:46.114Z,200.56
2023-03-26T12:01:45.231Z,206.88
2023-03-26T12:02:45.336Z,210.19
2023-03-26T12:03:45.258Z,215.57
2023-03-26T12:04:45.351Z,215.42
2023-03-26T12:05:45.303Z,212.15
2023-03-26T12:06:45.303Z,216.99
2023-03-26T12:07:45.333Z,214.12
2023-03-26T12:08:45.338Z,186.57
2023-03-26T12:09:45.400Z,168.91
2023-03-26T12:10:45.416Z,165.28
2023-03-26T12:11:45.524Z,163.10
2023-03-26T12:19:45.722Z,166.71
2023-03-26T12:20:45.728Z,166.81
2023-03-26T12:21:45.769Z,167.78
2023-03-26T12:22:47.741Z,166.52
2023-03-26T12:24:45.939Z,162.24
2023-03-26T12:25:45.983Z,163.25
2023-03-26T12:26:46.051Z,165.62
2023-03-26T12:27:46.082Z,166.88
2023-03-26T12:28:46.130Z,169.27
2023-03-26T12:29:46.192Z,171.34
2023-03-26T12:30:46.221Z,175.58
2023-03-26T12:31:46.313Z,177.69
2023-03-26T12:32:47.053Z,183.15
2023-03-26T12:33:46.424Z,186.05
2023-03-26T12:34:46.470Z,189.25
2023-03-26T12:35:46.504Z,192.85
2023-03-26T12:36:46.578Z,194.19
2023-03-26T12:37:46.584Z,193.22
2023-03-26T12:39:16.353Z,188.00
2023-03-26T12:40:09.449Z,188.03
2023-03-26T12:40:47.736Z,179.83
2023-03-26T12:44:59.322Z,154.68
2023-03-26T12:45:47.873Z,154.18
2023-03-26T12:47:59.506Z,150.33
2023-03-26T12:47:59.726Z,140.65
2023-03-26T12:48:48.022Z,137.93
2023-03-26T12:50:46.991Z,123.48
2023-03-26T12:51:46.999Z,117.18
2023-03-26T12:52:47.021Z,109.72
2023-03-26T12:53:47.106Z,108.21
2023-03-26T12:54:47.106Z,100.35
2023-03-26T12:55:47.126Z,100.26
2023-03-26T12:56:47.196Z,104.37
2023-03-26T12:57:47.189Z,108.20
2023-03-26T12:58:47.244Z,112.96
2023-03-26T12:59:47.271Z,120.05
2023-03-26T13:00:47.317Z,124.33
2023-03-26T13:01:47.387Z,116.30
2023-03-26T13:02:47.460Z,105.13
2023-03-26T13:03:47.373Z,105.66
2023-03-26T13:05:02.341Z,110.72
2023-03-26T13:05:48.490Z,100.03
2023-03-26T13:08:47.544Z,97.57
2023-03-26T13:09:47.591Z,99.39
2023-03-26T13:10:47.666Z,88.12
2023-03-26T13:11:47.672Z,74.83
2023-03-26T13:12:47.764Z,62.24
2023-03-26T13:13:47.743Z,54.53
2023-03-26T13:14:47.760Z,42.78
2023-03-26T13:15:47.834Z,37.72
2023-03-26T13:16:47.851Z,27.73
2023-03-26T13:17:47.933Z,24.90
2023-03-26T13:18:47.913Z,19.84
2023-03-26T13:19:47.947Z,16.42
2023-03-26T13:20:48.075Z,20.15
2023-03-26T13:21:48.111Z,25.13
2023-03-26T13:22:48.177Z,24.65
2023-03-26T13:23:48.287Z,26.42
2023-03-26T13:24:48.357Z,28.87
2023-03-26T13:25:48.440Z,30.61
2023-03-26T13:26:48.525Z,32.61
2023-03-26T13:27:48.706Z,33.93
2023-03-26T13:28:48.698Z,31.84
2023-03-26T13:29:48.790Z,36.17
2023-03-26T13:30:48.963Z,38.85
2023-03-26T13:31:48.947Z,38.77
2023-03-26T13:32:49.054Z,43.73
2023-03-26T13:33:49.111Z,44.04
2023-03-26T13:34:49.203Z,47.60
2023-03-26T13:35:49.774Z,48.33
2023-03-26T13:36:49.444Z,46.62
2023-03-26T13:37:49.464Z,48.77
2023-03-26T13:38:59.139Z,49.06
2023-03-26T13:39:50.685Z,49.24
2023-03-26T13:41:49.633Z,54.12
2023-03-26T13:42:49.692Z,65.18
2023-03-26T13:43:49.712Z,79.30
2023-03-26T13:44:49.746Z,88.64
2023-03-26T13:45:49.854Z,94.81
2023-03-26T13:46:49.839Z,96.72
2023-03-26T13:47:49.923Z,103.37
2023-03-26T13:48:49.871Z,109.99
2023-03-26T13:49:49.947Z,115.79
2023-03-26T13:50:51.260Z,117.21
2023-03-26T13:51:50.219Z,125.43
2023-03-26T13:56:50.622Z,139.56
2023-03-26T14:00:50.732Z,154.47
2023-03-26T14:01:51.262Z,158.18
2023-03-26T14:02:50.800Z,162.67
2023-03-26T14:03:50.881Z,163.48
2023-03-26T14:04:50.994Z,160.75
2023-03-26T14:05:50.986Z,170.99
2023-03-26T14:06:51.043Z,171.95
2023-03-26T14:07:51.119Z,172.24
2023-03-26T14:08:51.205Z,177.18
2023-03-26T14:09:51.287Z,181.55
2023-03-26T14:10:51.289Z,180.00
2023-03-26T14:11:51.300Z,173.76
2023-03-26T14:12:51.384Z,172.98
2023-03-26T14:13:51.602Z,178.63
2023-03-26T14:14:51.542Z,182.73
2023-03-26T14:16:51.649Z,187.40
2023-03-26T14:17:51.946Z,182.61
2023-03-26T14:18:51.717Z,187.33
2023-03-26T14:19:51.771Z,182.21
2023-03-26T14:20:51.806Z,180.16
2023-03-26T14:21:51.876Z,183.13
2023-03-26T14:22:51.923Z,182.70
2023-03-26T14:23:52.000Z,184.86
2023-03-26T14:24:52.047Z,181.69
2023-03-26T14:25:52.130Z,179.39
2023-03-26T14:26:52.157Z,169.48
2023-03-26T14:27:52.243Z,171.14
2023-03-26T14:28:52.302Z,170.84
2023-03-26T14:29:56.814Z,174.53
2023-03-26T14:30:53.601Z,174.60
2023-03-26T14:31:52.411Z,175.06
2023-03-26T14:32:52.482Z,176.09
2023-03-26T14:33:52.431Z,177.28
2023-03-26T14:34:52.441Z,180.60
2023-03-26T14:35:52.560Z,183.57
2023-03-26T14:36:52.494Z,184.90
2023-03-26T14:37:52.540Z,185.83
2023-03-26T14:38:52.586Z,184.32
2023-03-26T14:39:52.589Z,183.60
2023-03-26T14:40:52.662Z,185.49
2023-03-26T14:41:52.664Z,186.37
2023-03-26T14:42:55.218Z,181.85
2023-03-26T14:43:52.772Z,183.07
2023-03-26T14:44:52.771Z,185.19
2023-03-26T14:45:52.822Z,183.04
2023-03-26T14:46:52.930Z,185.69
2023-03-26T14:47:53.142Z,190.22
2023-03-26T14:48:52.897Z,195.53
2023-03-26T14:49:52.908Z,196.82
2023-03-26T14:50:53.037Z,199.59
2023-03-26T14:51:52.977Z,201.26
2023-03-26T14:52:53.028Z,203.24
2023-03-26T14:53:54.028Z,202.65
2023-03-26T14:54:53.082Z,202.44
2023-03-26T14:55:53.105Z,203.30
2023-03-26T14:56:53.153Z,203.75
2023-03-26T14:57:53.134Z,204.14
2023-03-26T14:58:53.166Z,205.60
2023-03-26T14:59:53.199Z,208.21
2023-03-26T15:00:53.281Z,211.54
2023-03-26T15:01:54.259Z,211.58
2023-03-26T15:06:53.351Z,216.22
2023-03-26T15:07:53.360Z,218.93
2023-03-26T15:08:53.446Z,219.35
2023-03-26T15:10:53.600Z,212.97
2023-03-26T15:11:53.452Z,213.70
2023-03-26T15:12:54.492Z,213.73
2023-03-26T15:14:54.095Z,213.06
2023-03-26T15:15:55.006Z,215.00
2023-03-26T15:16:53.665Z,219.80
2023-03-26T15:17:53.640Z,221.52
2023-03-26T15:18:53.627Z,224.90
2023-03-26T15:19:53.743Z,227.23
2023-03-26T15:25:53.792Z,226.08
2023-03-26T15:26:53.865Z,226.83
2023-03-26T15:27:53.861Z,227.02
2023-03-26T15:28:53.893Z,225.35
2023-03-26T15:29:53.918Z,225.85
2023-03-26T15:30:54.138Z,227.65
2023-03-26T15:31:54.014Z,227.23
2023-03-26T15:36:54.097Z,226.27
2023-03-26T15:37:54.107Z,227.64
2023-03-26T15:38:54.138Z,229.39
2023-03-26T15:39:59.861Z,229.76
2023-03-26T15:40:55.357Z,229.77
2023-03-26T15:41:54.220Z,229.77
2023-03-26T15:42:54.279Z,229.76
2023-03-26T15:44:23.800Z,230.05
2023-03-26T15:44:55.350Z,229.79
2023-03-26T15:47:54.428Z,228.53
2023-03-26T15:48:54.437Z,230.44
2023-03-26T15:49:54.482Z,233.43
2023-03-26T15:50:54.740Z,232.58
2023-03-26T15:51:54.524Z,227.96
2023-03-26T15:52:54.582Z,232.10
2023-03-26T15:53:54.617Z,230.95
2023-03-26T15:54:54.602Z,231.78
2023-03-26T15:55:54.669Z,229.42
2023-03-26T15:56:54.735Z,229.10
2023-03-26T15:57:54.754Z,230.60
2023-03-26T15:58:54.754Z,230.46
2023-03-26T15:59:54.791Z,230.87
2023-03-26T16:00:55.059Z,231.39
2023-03-26T16:01:54.905Z,231.04
2023-03-26T16:02:54.981Z,230.32
2023-03-26T16:03:54.939Z,232.13
2023-03-26T16:04:54.985Z,231.06
2023-03-26T16:05:54.961Z,233.33
2023-03-26T16:06:55.048Z,233.77
2023-03-26T16:10:55.420Z,222.22
2023-03-26T16:11:55.284Z,221.74
2023-03-26T16:12:55.389Z,221.74
2023-03-26T16:13:55.399Z,224.53
2023-03-26T16:14:55.457Z,226.29
2023-03-26T16:15:55.519Z,227.72
2023-03-26T16:16:55.577Z,230.61
2023-03-26T16:17:55.609Z,232.31
2023-03-26T16:18:55.679Z,235.08
2023-03-26T16:19:55.723Z,235.43